createdAt,value
2022-12-19T00:02:35.839Z,-3.90
2022-12-19T00:05:57.417Z,-3.93
2022-12-19T00:09:20.436Z,-3.97
2022-12-19T00:12:42.186Z,-4.00
2022-12-19T00:16:05.279Z,-4.02
2022-12-19T00:19:27.089Z,-4.02
2022-12-19T00:22:48.657Z,-4.01
2022-12-19T00:26:18.629Z,-4.01
2022-12-19T00:29:41.625Z,-3.99
2022-12-19T00:33:03.288Z,-4.01
2022-12-19T00:36:26.639Z,-3.99
2022-12-19T00:39:48.096Z,-4.01
2022-12-19T00:43:11.237Z,-4.02
2022-12-19T00:46:34.498Z,-4.02
2022-12-19T00:49:56.256Z,-4.03
2022-12-19T00:53:18.001Z,-4.03
2022-12-19T00:56:39.468Z,-4.05
2022-12-19T01:00:06.020Z,-4.07
2022-12-19T01:03:27.690Z,-4.07
2022-12-19T01:06:49.517Z,-4.07
2022-12-19T01:10:11.881Z,-4.07
2022-12-19T01:13:35.635Z,-4.07
2022-12-19T01:17:05.020Z,-4.07
2022-12-19T01:20:28.987Z,-4.07
2022-12-19T01:23:51.564Z,-4.07
2022-12-19T01:27:13.328Z,-4.09
2022-12-19T01:30:35.727Z,-4.11
2022-12-19T01:34:02.563Z,-4.10
2022-12-19T01:37:24.061Z,-4.11
2022-12-19T01:40:51.200Z,-4.10
2022-12-19T01:44:14.601Z,-4.07
2022-12-19T01:47:45.161Z,-4.07
2022-12-19T01:51:17.541Z,-4.05
2022-12-19T01:54:42.081Z,-4.05
2022-12-19T01:58:04.547Z,-4.07
2022-12-19T02:01:26.777Z,-4.05
2022-12-19T02:04:49.347Z,-4.03
2022-12-19T02:08:12.748Z,-4.03
2022-12-19T02:11:34.424Z,-4.03
2022-12-19T02:15:02.650Z,-4.02
2022-12-19T02:18:36.565Z,-4.05
2022-12-19T02:22:05.793Z,-4.05
2022-12-19T02:25:49.572Z,-4.04
2022-12-19T02:29:24.974Z,-4.08
2022-12-19T02:32:58.459Z,-4.10
2022-12-19T02:36:23.995Z,-4.10
2022-12-19T02:39:50.873Z,-4.12
2022-12-19T02:43:14.773Z,-4.13
2022-12-19T02:46:36.735Z,-4.15
2022-12-19T02:49:59.883Z,-4.16
2022-12-19T02:53:24.030Z,-4.18
2022-12-19T02:56:56.263Z,-4.17
2022-12-19T03:00:21.821Z,-4.18
2022-12-19T03:03:51.690Z,-4.18
2022-12-19T03:07:27.155Z,-4.17
2022-12-19T03:10:55.662Z,-4.16
2022-12-19T03:14:22.142Z,-4.17
2022-12-19T03:17:49.766Z,-4.17
2022-12-19T03:21:18.993Z,-4.17
2022-12-19T03:24:41.997Z,-4.19
2022-12-19T03:28:08.156Z,-4.17
2022-12-19T03:31:32.601Z,-4.15
2022-12-19T03:35:00.699Z,-4.16
2022-12-19T03:38:23.778Z,-4.18
2022-12-19T03:42:04.442Z,-4.18
2022-12-19T03:45:32.402Z,-4.18
2022-12-19T03:48:55.386Z,-4.16
2022-12-19T03:52:26.852Z,-4.13
2022-12-19T03:55:51.672Z,-4.14
2022-12-19T03:59:20.779Z,-4.11
2022-12-19T04:02:46.035Z,-4.11
2022-12-19T04:06:08.103Z,-4.10
2022-12-19T04:09:31.570Z,-4.09
2022-12-19T04:12:59.755Z,-4.09
2022-12-19T04:16:31.143Z,-4.05
2022-12-19T04:19:58.820Z,-4.04
2022-12-19T04:23:25.836Z,-4.03
2022-12-19T04:26:50.473Z,-4.03
2022-12-19T04:30:15.817Z,-4.01
2022-12-19T04:33:38.503Z,-4.01
2022-12-19T04:37:07.671Z,-4.01
2022-12-19T04:40:29.278Z,-4.00
2022-12-19T04:43:51.014Z,-4.00
2022-12-19T04:47:12.492Z,-3.98
2022-12-19T04:50:36.787Z,-3.96
2022-12-19T04:53:58.535Z,-3.98
2022-12-19T04:57:20.050Z,-3.98
2022-12-19T05:00:41.800Z,-4.00
2022-12-19T05:04:04.843Z,-3.99
2022-12-19T05:07:28.200Z,-3.98
2022-12-19T05:10:49.740Z,-3.97
2022-12-19T05:14:11.537Z,-3.97
2022-12-19T05:17:33.468Z,-3.97
2022-12-19T05:20:55.440Z,-3.98
2022-12-19T05:24:18.514Z,-3.97
2022-12-19T05:27:40.104Z,-3.99
2022-12-19T05:31:07.625Z,-4.01
2022-12-19T05:34:29.481Z,-4.00
2022-12-19T05:37:51.031Z,-4.01
2022-12-19T05:41:18.596Z,-4.00
2022-12-19T05:44:39.809Z,-3.99
2022-12-19T05:48:01.781Z,-4.00
2022-12-19T05:51:23.652Z,-4.01
2022-12-19T05:54:45.731Z,-4.01
2022-12-19T05:58:08.696Z,-4.01
2022-12-19T06:01:30.655Z,-4.02
2022-12-19T06:04:52.302Z,-4.00
2022-12-19T06:08:14.247Z,-3.95
2022-12-19T06:11:36.052Z,-3.95
2022-12-19T06:14:59.087Z,-3.92
2022-12-19T06:18:20.660Z,-3.90
2022-12-19T06:21:47.976Z,-3.87
2022-12-19T06:25:10.902Z,-3.83
2022-12-19T06:28:33.305Z,-3.82
2022-12-19T06:31:56.114Z,-3.79
2022-12-19T06:35:17.664Z,-3.75
2022-12-19T06:38:39.103Z,-3.70
2022-12-19T06:42:17.686Z,-3.65
2022-12-19T06:45:39.145Z,-3.61
2022-12-19T06:49:02.309Z,-3.58
2022-12-19T06:52:23.949Z,-3.55
2022-12-19T06:55:49.436Z,-3.49
2022-12-19T06:59:13.929Z,-3.43
2022-12-19T07:02:35.907Z,-3.37
2022-12-19T07:05:58.726Z,-3.31
2022-12-19T07:09:21.589Z,-3.27
2022-12-19T07:12:42.964Z,-3.21
2022-12-19T07:16:06.614Z,-3.17
2022-12-19T07:19:29.369Z,-3.14
2022-12-19T07:22:52.456Z,-3.11
2022-12-19T07:26:14.049Z,-3.05
2022-12-19T07:29:35.944Z,-3.00
2022-12-19T07:32:57.776Z,-2.95
2022-12-19T07:36:19.681Z,-2.89
2022-12-19T07:39:42.903Z,-2.82
2022-12-19T07:43:05.906Z,-2.74
2022-12-19T07:46:29.845Z,-2.67
2022-12-19T07:49:51.340Z,-2.61
2022-12-19T07:53:12.819Z,-2.54
2022-12-19T07:56:35.947Z,-2.49
2022-12-19T07:59:58.510Z,-2.43
2022-12-19T08:03:20.310Z,-2.39
2022-12-19T08:06:42.012Z,-2.33
2022-12-19T08:10:03.865Z,-2.26
2022-12-19T08:13:29.043Z,-2.21
2022-12-19T08:20:34.399Z,-2.11
2022-12-19T08:23:56.440Z,-2.08
2022-12-19T08:27:18.806Z,-2.02
2022-12-19T08:30:42.700Z,-1.97
2022-12-19T08:34:04.168Z,-1.92
2022-12-19T08:37:25.845Z,-1.86
2022-12-19T08:40:53.622Z,-1.81
2022-12-19T08:44:15.463Z,-1.74
2022-12-19T08:47:38.532Z,-1.69
2022-12-19T08:51:01.712Z,-1.64
2022-12-19T08:54:23.571Z,-1.56
2022-12-19T08:57:45.254Z,-1.52
2022-12-19T09:01:09.989Z,-1.50
2022-12-19T09:05:57.446Z,-1.44
2022-12-19T09:08:14.848Z,-1.39
2022-12-19T09:11:40.904Z,-1.31
2022-12-19T09:15:10.523Z,-1.25
2022-12-19T09:18:32.961Z,-1.22
2022-12-19T09:21:55.650Z,-1.15
2022-12-19T09:25:17.631Z,-1.11
2022-12-19T09:28:40.937Z,-1.07
2022-12-19T09:32:02.593Z,-1.04
2022-12-19T09:35:28.535Z,-0.97
2022-12-19T09:38:54.712Z,-0.90
2022-12-19T09:42:29.365Z,-0.86
2022-12-19T09:46:01.968Z,-0.80
2022-12-19T09:49:25.817Z,-0.73
2022-12-19T09:52:52.112Z,-0.67
2022-12-19T09:56:16.769Z,-0.64
2022-12-19T09:59:49.584Z,-0.56
2022-12-19T10:03:22.891Z,-0.48
2022-12-19T10:07:22.190Z,-0.40
2022-12-19T10:12:46.407Z,-0.35
2022-12-19T10:14:43.821Z,-0.27
2022-12-19T10:18:31.078Z,-0.19
2022-12-19T10:22:18.331Z,-0.12
2022-12-19T10:25:52.701Z,-0.10
2022-12-19T10:29:31.197Z,-0.02
2022-12-19T10:33:01.728Z,0.05
2022-12-19T10:36:48.655Z,0.08
2022-12-19T10:40:27.664Z,0.12
2022-12-19T10:44:00.139Z,0.16
2022-12-19T10:47:23.279Z,0.24
2022-12-19T10:50:45.277Z,0.27
2022-12-19T10:54:06.708Z,0.33
2022-12-19T10:57:30.354Z,0.39
2022-12-19T11:01:05.124Z,0.46
2022-12-19T11:04:35.330Z,0.49
2022-12-19T11:08:03.713Z,0.54
2022-12-19T11:14:15.197Z,0.59
2022-12-19T11:20:18.975Z,0.65
2022-12-19T11:29:40.134Z,0.74
2022-12-19T11:29:40.836Z,0.69
2022-12-19T11:30:46.938Z,0.79
2022-12-19T11:34:07.567Z,0.89
2022-12-19T11:37:38.999Z,0.95
2022-12-19T11:41:10.867Z,1.00
2022-12-19T11:44:40.041Z,1.03
2022-12-19T11:48:10.467Z,1.09
2022-12-19T11:51:40.636Z,1.14
2022-12-19T11:55:07.460Z,1.16
2022-12-19T11:58:30.891Z,1.21
2022-12-19T12:02:31.420Z,1.23
2022-12-19T12:05:55.363Z,1.29
2022-12-19T12:13:52.072Z,1.31
2022-12-19T12:24:22.381Z,1.38
2022-12-19T12:31:07.991Z,1.42
2022-12-19T12:31:10.656Z,1.48
2022-12-19T12:31:22.107Z,1.51
2022-12-19T12:31:53.737Z,1.56
2022-12-19T12:35:42.373Z,1.60
2022-12-19T12:40:55.919Z,1.57
2022-12-19T12:44:18.459Z,1.62
2022-12-19T12:47:55.669Z,1.64
2022-12-19T12:51:18.550Z,1.68
2022-12-19T12:54:43.943Z,1.72
2022-12-19T12:58:09.178Z,1.75
2022-12-19T13:01:37.696Z,1.76
2022-12-19T13:05:02.146Z,1.73
2022-12-19T13:08:35.381Z,1.75
2022-12-19T13:12:20.456Z,1.76
2022-12-19T13:15:44.023Z,1.79
2022-12-19T13:19:20.974Z,1.80
2022-12-19T13:23:04.347Z,1.81
2022-12-19T13:26:51.124Z,1.82
2022-12-19T13:30:18.340Z,1.85
2022-12-19T13:33:47.108Z,1.87
2022-12-19T13:40:01.457Z,1.77
2022-12-19T13:41:47.665Z,1.79
2022-12-19T13:45:14.654Z,1.82
2022-12-19T13:48:42.649Z,1.84
2022-12-19T13:52:05.869Z,1.82
2022-12-19T13:55:29.989Z,1.85
2022-12-19T13:58:56.547Z,1.87
2022-12-19T14:02:27.130Z,1.90
2022-12-19T14:06:16.450Z,1.88
2022-12-19T14:11:26.902Z,1.91
2022-12-19T14:13:51.022Z,1.94
2022-12-19T14:17:22.977Z,1.94
2022-12-19T14:22:05.677Z,1.96
2022-12-19T14:24:26.344Z,1.94
2022-12-19T14:28:26.610Z,1.96
2022-12-19T14:31:36.967Z,1.98
2022-12-19T14:36:06.441Z,2.00
2022-12-19T14:39:23.728Z,2.03
2022-12-19T14:43:58.855Z,2.02
2022-12-19T14:54:03.376Z,2.03
2022-12-19T14:54:07.367Z,2.00
2022-12-19T14:58:51.119Z,2.05
2022-12-19T15:01:54.605Z,2.05
2022-12-19T15:05:18.374Z,2.05
2022-12-19T15:09:02.629Z,2.06
2022-12-19T15:13:47.196Z,2.09
2022-12-19T15:16:31.452Z,2.12
2022-12-19T15:19:53.609Z,2.14
2022-12-19T15:23:19.931Z,2.15
2022-12-19T15:26:48.929Z,2.14
2022-12-19T15:30:16.108Z,2.15
2022-12-19T15:33:48.072Z,2.16
2022-12-19T15:37:19.188Z,2.22
2022-12-19T15:40:42.884Z,2.25
2022-12-19T15:44:10.737Z,2.28
2022-12-19T15:47:34.553Z,2.29
2022-12-19T15:50:56.024Z,2.33
2022-12-19T15:58:02.425Z,2.37
2022-12-19T16:01:26.844Z,2.38
2022-12-19T16:04:49.944Z,2.36
2022-12-19T16:08:13.070Z,2.41
2022-12-19T16:11:34.711Z,2.45
2022-12-19T16:14:59.273Z,2.49
2022-12-19T16:18:22.701Z,2.54
2022-12-19T16:21:44.905Z,2.55
2022-12-19T16:25:07.673Z,2.59
2022-12-19T16:28:31.861Z,2.61
2022-12-19T16:31:54.945Z,2.66
2022-12-19T16:35:40.149Z,2.68
2022-12-19T16:39:02.050Z,2.71
2022-12-19T16:42:23.471Z,2.73
2022-12-19T16:45:45.991Z,2.77
2022-12-19T16:49:14.314Z,2.80
2022-12-19T16:52:42.350Z,2.85
2022-12-19T16:56:04.646Z,2.86
2022-12-19T16:59:31.841Z,2.87
2022-12-19T17:02:57.441Z,2.87
2022-12-19T17:06:20.937Z,2.89
2022-12-19T17:09:44.059Z,2.92
2022-12-19T17:13:06.015Z,2.95
2022-12-19T17:16:27.765Z,2.98
2022-12-19T17:19:49.441Z,3.03
2022-12-19T17:23:15.922Z,3.06
2022-12-19T17:26:38.931Z,3.09
2022-12-19T17:30:01.313Z,3.11
2022-12-19T17:33:26.809Z,3.16
2022-12-19T17:36:48.827Z,3.21
2022-12-19T17:40:17.699Z,3.23
2022-12-19T17:43:40.574Z,3.26
2022-12-19T17:47:02.407Z,3.30
2022-12-19T17:50:27.311Z,3.32
2022-12-19T17:53:49.466Z,3.36
2022-12-19T17:57:14.265Z,3.38
2022-12-19T18:00:37.140Z,3.42
2022-12-19T18:03:58.995Z,3.46
2022-12-19T18:07:20.841Z,3.50
2022-12-19T18:10:42.325Z,3.51
2022-12-19T18:14:04.248Z,3.54
2022-12-19T18:17:27.420Z,3.59
2022-12-19T18:20:50.096Z,3.59
2022-12-19T18:24:12.979Z,3.60
2022-12-19T18:27:34.547Z,3.60
2022-12-19T18:31:01.193Z,3.64
2022-12-19T18:34:26.099Z,3.66
2022-12-19T18:37:49.026Z,3.70
2022-12-19T18:41:11.923Z,3.75
2022-12-19T18:44:33.688Z,3.75
2022-12-19T18:47:58.524Z,3.80
2022-12-19T18:51:23.247Z,3.78
2022-12-19T18:54:44.978Z,3.80
2022-12-19T18:58:07.091Z,3.82
2022-12-19T19:01:28.620Z,3.86
2022-12-19T19:04:50.799Z,3.80
2022-12-19T19:08:18.336Z,3.85
2022-12-19T19:11:45.297Z,3.88
2022-12-19T19:15:07.976Z,3.93
2022-12-19T19:18:33.043Z,3.96
2022-12-19T19:21:55.369Z,4.00
2022-12-19T19:25:18.673Z,4.02
2022-12-19T19:28:40.162Z,4.05
2022-12-19T19:32:02.242Z,4.08
2022-12-19T19:35:24.388Z,4.11
2022-12-19T19:38:49.864Z,4.15
2022-12-19T19:42:12.582Z,4.20
2022-12-19T19:45:41.194Z,4.25
2022-12-19T19:49:04.796Z,4.24
2022-12-19T19:52:26.186Z,4.27
2022-12-19T19:55:55.929Z,4.29
2022-12-19T19:59:18.872Z,4.27
2022-12-19T20:02:40.796Z,4.29
2022-12-19T20:06:02.837Z,4.31
2022-12-19T20:09:24.416Z,4.33
2022-12-19T20:12:46.725Z,4.34
2022-12-19T20:16:12.168Z,4.37
2022-12-19T20:19:33.690Z,4.40
2022-12-19T20:22:55.517Z,4.40
2022-12-19T20:26:18.179Z,4.43
2022-12-19T20:29:39.899Z,4.43
2022-12-19T20:33:03.031Z,4.44
2022-12-19T20:36:25.484Z,4.46
2022-12-19T20:39:46.972Z,4.49
2022-12-19T20:43:08.813Z,4.51
2022-12-19T20:46:30.503Z,4.54
2022-12-19T20:49:53.589Z,4.55
2022-12-19T20:53:15.035Z,4.57
2022-12-19T20:56:37.167Z,4.56
2022-12-19T20:59:58.527Z,4.56
2022-12-19T21:03:29.461Z,4.54
2022-12-19T21:06:53.080Z,4.53
2022-12-19T21:10:14.845Z,4.52
2022-12-19T21:13:37.534Z,4.47
2022-12-19T21:16:59.192Z,4.49
2022-12-19T21:20:20.964Z,4.51
2022-12-19T21:23:44.839Z,4.51
2022-12-19T21:27:06.238Z,4.51
2022-12-19T21:30:27.811Z,4.48
2022-12-19T21:33:51.067Z,4.49
2022-12-19T21:37:12.364Z,4.53
2022-12-19T21:40:36.994Z,4.51
2022-12-19T21:44:00.475Z,4.51
2022-12-19T21:47:22.491Z,4.51
2022-12-19T21:50:44.419Z,4.54
2022-12-19T21:54:07.060Z,4.52
2022-12-19T21:57:29.821Z,4.52
2022-12-19T22:00:51.160Z,4.48
2022-12-19T22:04:15.337Z,4.48
2022-12-19T22:07:37.061Z,4.47
2022-12-19T22:10:58.706Z,4.44
2022-12-19T22:14:21.871Z,4.44
2022-12-19T22:17:43.868Z,4.45
2022-12-19T22:21:06.690Z,4.44
2022-12-19T22:24:28.162Z,4.43
2022-12-19T22:27:49.764Z,4.44
2022-12-19T22:31:21.270Z,4.43
2022-12-19T22:34:42.804Z,4.44
2022-12-19T22:38:04.662Z,4.46
2022-12-19T22:41:27.757Z,4.47
2022-12-19T22:44:49.411Z,4.48
2022-12-19T22:48:12.531Z,4.50
2022-12-19T22:51:35.571Z,4.52
2022-12-19T22:54:57.120Z,4.53
2022-12-19T22:58:18.800Z,4.54
2022-12-19T23:01:42.864Z,4.53
2022-12-19T23:05:07.105Z,4.56
2022-12-19T23:08:28.586Z,4.54
2022-12-19T23:11:50.705Z,4.53
2022-12-19T23:15:12.520Z,4.54
2022-12-19T23:18:34.279Z,4.53
2022-12-19T23:21:57.069Z,4.51
2022-12-19T23:25:18.846Z,4.53
2022-12-19T23:28:40.672Z,4.51
2022-12-19T23:32:02.563Z,4.49
2022-12-19T23:35:24.287Z,4.51
2022-12-19T23:38:47.500Z,4.47
2022-12-19T23:42:09.398Z,4.48
2022-12-19T23:45:31.085Z,4.50
2022-12-19T23:48:54.399Z,4.52
2022-12-19T23:52:16.244Z,4.49
2022-12-19T23:55:39.323Z,4.49
2022-12-19T23:59:01.535Z,4.49
